Aviation Digital Data Service (ADDS)

Output produced by METARs form (0846 UTC 18 April 2015)
found at http://www.aviationweather.gov/adds/metars/
 
KEWR 180834Z 1809/1912 VRB04KT P6SM SKC 
     FM181500 29010G17KT P6SM SKC 
     FM181900 28014G23KT P6SM SCT080 
     FM190000 35012G21KT P6SM SKC 
     FM190500 02008KT P6SM FEW250